createdAt,value
2018-04-26T00:00:35.806Z,13.36
2018-04-26T00:01:16.216Z,13.32
2018-04-26T00:01:56.660Z,13.31
2018-04-26T00:02:36.981Z,13.47
2018-04-26T00:03:17.443Z,13.47
2018-04-26T00:03:57.856Z,13.46
2018-04-26T00:04:38.279Z,13.31
2018-04-26T00:05:18.704Z,13.43
2018-04-26T00:05:59.082Z,13.48
2018-04-26T00:06:39.551Z,13.53
2018-04-26T00:07:19.940Z,13.51
2018-04-26T00:08:00.347Z,13.5
2018-04-26T00:08:40.788Z,13.41
2018-04-26T00:09:21.207Z,13.46
2018-04-26T00:10:01.643Z,13.32
2018-04-26T00:10:42.052Z,13.32
2018-04-26T00:11:22.857Z,13.38
2018-04-26T00:12:03.253Z,13.32
2018-04-26T00:12:43.759Z,13.32
2018-04-26T00:13:24.084Z,13.36
2018-04-26T00:14:04.561Z,13.36
2018-04-26T00:14:44.974Z,13.39
2018-04-26T00:15:25.453Z,13.43
2018-04-26T00:16:05.861Z,13.43
2018-04-26T00:16:46.249Z,13.47
2018-04-26T00:17:26.638Z,13.44
2018-04-26T00:18:07.053Z,13.41
2018-04-26T00:18:47.433Z,13.43
2018-04-26T00:19:27.878Z,13.31
2018-04-26T00:20:08.343Z,13.41
2018-04-26T00:20:48.701Z,13.22
2018-04-26T00:21:29.112Z,13.24
2018-04-26T00:22:09.506Z,13.28
2018-04-26T00:22:49.927Z,13.14
2018-04-26T00:23:30.365Z,13.1
2018-04-26T00:24:10.751Z,13.12
2018-04-26T00:24:51.255Z,13.16
2018-04-26T00:25:31.700Z,13.21
2018-04-26T00:26:12.028Z,13.17
2018-04-26T00:26:52.454Z,13.16
2018-04-26T00:27:32.929Z,13.13
2018-04-26T00:28:13.349Z,13.17
2018-04-26T00:28:53.765Z,13.21
2018-04-26T00:29:34.177Z,13.24
2018-04-26T00:30:14.623Z,13.29
2018-04-26T00:30:54.983Z,13.13
2018-04-26T00:31:35.434Z,13.21
2018-04-26T00:32:15.964Z,13.16
2018-04-26T00:32:56.280Z,13.14
2018-04-26T00:33:36.640Z,13.25
2018-04-26T00:35:29.414Z,12.94
2018-04-26T00:36:10.027Z,13.09
2018-04-26T00:36:50.467Z,13.01
2018-04-26T00:37:30.879Z,12.98
2018-04-26T00:38:11.265Z,12.96
2018-04-26T00:38:51.723Z,12.96
2018-04-26T00:39:32.133Z,12.98
2018-04-26T00:40:12.559Z,12.84
2018-04-26T00:40:52.985Z,12.8
2018-04-26T00:41:33.389Z,12.84
2018-04-26T00:42:13.786Z,12.79
2018-04-26T00:42:54.235Z,12.77
2018-04-26T00:43:34.677Z,12.88
2018-04-26T00:44:15.089Z,12.89
2018-04-26T00:44:55.542Z,12.96
2018-04-26T00:45:35.967Z,12.95
2018-04-26T00:46:16.522Z,13.01
2018-04-26T00:46:57.037Z,12.95
2018-04-26T00:47:37.406Z,12.96
2018-04-26T00:48:17.859Z,13.1
2018-04-26T00:48:58.258Z,13.03
2018-04-26T00:49:38.693Z,13.07
2018-04-26T00:50:19.124Z,13.04
2018-04-26T00:50:59.524Z,13.12
2018-04-26T00:51:39.970Z,13.06
2018-04-26T00:52:20.391Z,13.14
2018-04-26T00:53:00.883Z,13.19
2018-04-26T00:53:41.279Z,13.14
2018-04-26T00:54:22.063Z,12.95
2018-04-26T00:55:02.486Z,13.1
2018-04-26T00:55:42.937Z,13.12
2018-04-26T00:56:23.357Z,13.17
2018-04-26T00:57:03.757Z,13.13
2018-04-26T00:57:44.156Z,13.16
2018-04-26T00:58:24.588Z,13.19
2018-04-26T00:59:04.981Z,13.14
2018-04-26T00:59:45.384Z,13.12
2018-04-26T01:00:25.844Z,13.19
2018-04-26T01:01:06.255Z,13.24
2018-04-26T01:01:46.787Z,13.25
2018-04-26T01:02:27.328Z,13.24
2018-04-26T01:03:07.717Z,13.32
2018-04-26T01:03:48.125Z,13.25
2018-04-26T01:04:28.523Z,13.35
2018-04-26T01:05:08.923Z,13.29
2018-04-26T01:05:49.405Z,13.31
2018-04-26T01:06:29.731Z,13.5
2018-04-26T01:07:10.144Z,13.32
2018-04-26T01:07:50.558Z,13.21
2018-04-26T01:08:30.995Z,13.19
2018-04-26T01:09:11.379Z,13.28
2018-04-26T01:09:51.785Z,13.32
2018-04-26T01:10:32.254Z,13.38
2018-04-26T01:12:25.855Z,13.27
2018-04-26T01:13:06.799Z,13.27
2018-04-26T01:13:47.210Z,13.29
2018-04-26T01:14:27.584Z,13.29
2018-04-26T01:15:08.043Z,13.22
2018-04-26T01:15:48.534Z,13.12
2018-04-26T01:16:28.894Z,13.16
2018-04-26T01:17:09.344Z,13.25
2018-04-26T01:17:49.658Z,13.14
2018-04-26T01:18:30.322Z,13.1
2018-04-26T01:19:10.612Z,13.16
2018-04-26T01:19:51.042Z,13.09
2018-04-26T01:20:31.404Z,13.14
2018-04-26T01:21:11.832Z,13.22
2018-04-26T01:21:52.202Z,13.14
2018-04-26T01:22:32.627Z,13.16
2018-04-26T01:23:13.062Z,13.24
2018-04-26T01:23:53.589Z,13.17
2018-04-26T01:24:33.908Z,13.14
2018-04-26T01:25:14.341Z,13.12
2018-04-26T01:25:54.813Z,13.09
2018-04-26T01:26:35.211Z,13.16
2018-04-26T01:28:47.822Z,13.07
2018-04-26T01:29:28.150Z,13.09
2018-04-26T01:30:08.559Z,12.96
2018-04-26T01:31:45.881Z,13.01
2018-04-26T01:32:26.372Z,12.95
2018-04-26T01:33:06.708Z,13.06
2018-04-26T01:33:47.149Z,13.14
2018-04-26T01:34:27.535Z,13.16
2018-04-26T01:35:07.935Z,13.25
2018-04-26T01:35:48.342Z,13.21
2018-04-26T01:36:28.731Z,13.07
2018-04-26T01:37:09.138Z,13.03
2018-04-26T01:37:49.560Z,12.99
2018-04-26T01:38:30.072Z,13.07
2018-04-26T01:40:27.591Z,13.19
2018-04-26T01:41:10.047Z,13.12
2018-04-26T01:41:50.433Z,13.16
2018-04-26T01:42:30.868Z,13.14
2018-04-26T01:45:35.208Z,13.27
2018-04-26T01:46:17.201Z,13.22
2018-04-26T01:46:57.682Z,13.22
2018-04-26T01:47:38.026Z,13.25
2018-04-26T01:48:18.586Z,13.21
2018-04-26T01:48:58.926Z,13.22
2018-04-26T01:49:39.297Z,13.24
2018-04-26T01:50:20.072Z,13.25
2018-04-26T01:51:01.198Z,13.29
2018-04-26T01:51:41.440Z,13.21
2018-04-26T01:52:22.032Z,13.06
2018-04-26T01:53:03.259Z,13.14
2018-04-26T01:53:45.130Z,13.06
2018-04-26T01:54:25.629Z,13.04
2018-04-26T01:55:06.236Z,13.12
2018-04-26T01:55:46.535Z,13.07
2018-04-26T01:56:26.933Z,13.01
2018-04-26T01:57:07.356Z,13.12
2018-04-26T01:57:48.003Z,12.96
2018-04-26T01:58:28.367Z,13.01
2018-04-26T01:59:09.068Z,12.88
2018-04-26T01:59:49.291Z,12.84
2018-04-26T02:00:29.887Z,12.77
2018-04-26T02:01:10.643Z,12.74
2018-04-26T02:01:50.861Z,12.8
2018-04-26T02:02:31.514Z,12.77
2018-04-26T02:03:12.726Z,12.77
2018-04-26T02:03:54.391Z,12.95
2018-04-26T02:04:34.846Z,12.81
2018-04-26T02:05:15.356Z,12.77
2018-04-26T02:05:55.814Z,12.8
2018-04-26T02:06:36.347Z,12.79
2018-04-26T02:07:16.999Z,12.77
2018-04-26T02:07:59.950Z,12.94
2018-04-26T02:08:40.664Z,12.8
2018-04-26T02:09:21.696Z,12.79
2018-04-26T02:11:00.966Z,12.95
2018-04-26T02:11:42.115Z,12.85
2018-04-26T02:12:22.213Z,12.96
2018-04-26T02:13:02.742Z,12.98
2018-04-26T02:13:43.107Z,13.06
2018-04-26T02:14:23.566Z,13.07
2018-04-26T02:15:03.890Z,13.13
2018-04-26T02:15:44.289Z,13.1
2018-04-26T02:16:24.699Z,13.19
2018-04-26T02:17:05.110Z,13.17
2018-04-26T02:17:45.520Z,13.24
2018-04-26T02:18:25.935Z,13.19
2018-04-26T02:19:06.313Z,13.22
2018-04-26T02:19:46.718Z,13.19
2018-04-26T02:20:27.283Z,13.12
2018-04-26T02:21:07.533Z,13.14
2018-04-26T02:21:48.012Z,13.24
2018-04-26T02:22:28.403Z,13.22
2018-04-26T02:23:08.851Z,13.22
2018-04-26T02:23:49.294Z,13.25
2018-04-26T02:24:29.704Z,13.12
2018-04-26T02:30:22.884Z,13.09
2018-04-26T02:31:03.196Z,13.13
2018-04-26T02:31:43.697Z,13.16
2018-04-26T02:32:24.301Z,13.17
2018-04-26T02:33:04.692Z,13.1
2018-04-26T02:33:45.102Z,13.13
2018-04-26T02:34:25.535Z,13.14
2018-04-26T02:35:05.974Z,13.07
2018-04-26T02:35:46.396Z,13.1
2018-04-26T02:36:26.831Z,13.07
2018-04-26T02:37:07.181Z,13.12
2018-04-26T02:37:47.637Z,13.17
2018-04-26T02:38:28.086Z,13.07
2018-04-26T02:39:08.486Z,13.13
2018-04-26T02:39:48.884Z,13.07
2018-04-26T02:40:29.232Z,13.07
2018-04-26T02:41:09.631Z,13.13
2018-04-26T02:41:50.072Z,13.14
2018-04-26T02:42:30.501Z,13.24
2018-04-26T02:43:10.933Z,13.21
2018-04-26T02:43:51.441Z,13.21
2018-04-26T02:44:31.785Z,13.17
2018-04-26T02:45:12.169Z,13.22
2018-04-26T02:45:52.588Z,13.13
2018-04-26T02:46:32.987Z,13.21
2018-04-26T02:47:13.514Z,13.16
2018-04-26T02:47:53.932Z,13.06
2018-04-26T02:48:34.362Z,13.17
2018-04-26T02:49:14.870Z,13.14
2018-04-26T02:49:55.130Z,13.17
2018-04-26T02:50:35.721Z,13.16
2018-04-26T02:51:16.140Z,13.19
2018-04-26T02:51:56.952Z,13.09
2018-04-26T02:52:36.936Z,12.95
2018-04-26T02:53:17.478Z,12.96
2018-04-26T02:53:57.805Z,13.07
2018-04-26T02:54:38.525Z,13.1
2018-04-26T02:55:18.956Z,13.09
2018-04-26T02:55:59.435Z,13.07
2018-04-26T02:56:40.211Z,13.06
2018-04-26T02:57:20.324Z,12.91
2018-04-26T02:58:00.704Z,12.99
2018-04-26T02:58:41.122Z,12.99
2018-04-26T02:59:21.541Z,13.03
2018-04-26T03:00:01.987Z,13.03
2018-04-26T03:00:42.343Z,13.04
2018-04-26T03:01:22.780Z,13.14
2018-04-26T03:02:03.362Z,13.09
2018-04-26T03:02:43.772Z,13.22
2018-04-26T03:03:24.335Z,13.32
2018-04-26T03:04:04.731Z,13.25
2018-04-26T03:04:45.093Z,13.31
2018-04-26T03:05:25.550Z,13.46
2018-04-26T03:06:06.198Z,13.46
2018-04-26T03:06:46.434Z,13.55
2018-04-26T03:07:26.836Z,13.57
2018-04-26T03:08:07.255Z,13.51
2018-04-26T03:08:47.637Z,13.55
2018-04-26T03:11:05.329Z,13.54
2018-04-26T03:11:47.014Z,13.53
2018-04-26T03:12:31.063Z,13.46
2018-04-26T03:13:12.556Z,13.54
2018-04-26T03:13:52.907Z,13.47
2018-04-26T03:14:33.611Z,13.44
2018-04-26T03:15:14.177Z,13.43
2018-04-26T03:15:54.433Z,13.44
2018-04-26T03:16:35.098Z,13.32
2018-04-26T03:17:15.594Z,13.41
2018-04-26T03:17:56.015Z,13.24
2018-04-26T03:18:36.421Z,13.21
2018-04-26T03:19:18.095Z,13.22
2018-04-26T03:19:58.355Z,13.25
2018-04-26T03:20:39.143Z,13.35
2018-04-26T03:21:19.603Z,13.24
2018-04-26T03:22:00.335Z,13.25
2018-04-26T03:22:40.584Z,13.25
2018-04-26T03:23:21.415Z,13.17
2018-04-26T03:24:01.847Z,13.16
2018-04-26T03:24:42.262Z,13.06
2018-04-26T03:25:22.925Z,13.04
2018-04-26T03:26:04.990Z,13.04
2018-04-26T03:26:45.212Z,13.14
2018-04-26T03:27:25.624Z,13.21
2018-04-26T03:28:06.216Z,13.25
2018-04-26T03:28:47.125Z,13.21
2018-04-26T03:29:28.524Z,13.24
2018-04-26T03:30:09.028Z,13.25
2018-04-26T03:30:52.058Z,13.17
2018-04-26T03:31:32.939Z,13.22
2018-04-26T03:32:13.357Z,13.35
2018-04-26T03:32:54.199Z,13.32
2018-04-26T03:33:34.624Z,13.51
2018-04-26T03:34:17.334Z,13.41
2018-04-26T03:34:57.863Z,13.48
2018-04-26T03:35:38.987Z,13.41
2018-04-26T03:36:19.451Z,13.38
2018-04-26T03:37:00.211Z,13.38
2018-04-26T03:37:40.974Z,13.47
2018-04-26T03:38:21.497Z,13.32
2018-04-26T03:39:01.920Z,13.46
2018-04-26T03:39:43.808Z,13.44
2018-04-26T03:40:23.895Z,13.43
2018-04-26T03:41:05.333Z,13.48
2018-04-26T03:41:46.495Z,13.32
2018-04-26T03:42:26.404Z,13.17
2018-04-26T03:43:07.354Z,13.27
2018-04-26T03:43:48.340Z,13.21
2018-04-26T03:44:28.528Z,13.19
2018-04-26T03:45:09.240Z,13.07
2018-04-26T03:45:49.576Z,13.03
2018-04-26T03:46:31.322Z,13.1
2018-04-26T03:47:11.751Z,13.14
2018-04-26T03:47:53.306Z,13.16
2018-04-26T03:48:34.038Z,13.17
2018-04-26T03:49:14.341Z,13.27
2018-04-26T03:49:55.195Z,13.19
2018-04-26T03:50:36.064Z,13.13
2018-04-26T03:51:17.993Z,13.04
2018-04-26T03:51:59.272Z,13.06
2018-04-26T03:52:39.318Z,13.09
2018-04-26T03:53:20.638Z,12.92
2018-04-26T03:54:01.099Z,12.95
2018-04-26T03:54:41.614Z,12.98
2018-04-26T03:55:22.524Z,12.87
2018-04-26T03:56:03.029Z,12.94
2018-04-26T03:56:43.885Z,12.84
2018-04-26T03:57:25.138Z,12.88
2018-04-26T03:58:05.965Z,12.91
2018-04-26T03:58:46.331Z,12.92
2018-04-26T03:59:27.551Z,12.96
2018-04-26T04:00:07.739Z,12.96
2018-04-26T04:00:48.983Z,12.85
2018-04-26T04:01:29.572Z,12.81
2018-04-26T04:41:30.124Z,12
2018-04-26T04:43:04.087Z,11.9
2018-04-26T04:43:44.392Z,11.79
2018-04-26T04:44:24.778Z,11.79
2018-04-26T04:45:05.228Z,11.75
2018-04-26T04:45:45.585Z,11.81
2018-04-26T04:46:26.005Z,11.84
2018-04-26T04:47:06.365Z,11.82
2018-04-26T04:47:46.761Z,11.88
2018-04-26T04:48:27.183Z,12.05
2018-04-26T04:49:07.535Z,12.08
2018-04-26T04:50:44.743Z,12.11
2018-04-26T04:51:25.137Z,12.04
2018-04-26T04:52:06.364Z,12.04
2018-04-26T04:52:46.782Z,12.08
2018-04-26T04:53:27.188Z,12.26
2018-04-26T04:54:07.593Z,12.37
2018-04-26T04:54:48.121Z,12.34
2018-04-26T04:55:28.535Z,12.46
2018-04-26T04:56:08.920Z,12.37
2018-04-26T04:56:49.404Z,12.49
2018-04-26T04:57:29.838Z,12.44
2018-04-26T04:58:10.405Z,12.44
2018-04-26T04:58:50.797Z,12.46
2018-04-26T04:59:31.758Z,12.54
2018-04-26T05:00:12.216Z,12.52
2018-04-26T05:00:52.504Z,12.59
2018-04-26T05:01:32.868Z,12.69
2018-04-26T05:02:13.307Z,12.76
2018-04-26T05:02:53.704Z,12.63
2018-04-26T05:03:34.152Z,12.61
2018-04-26T05:04:14.583Z,12.61
2018-04-26T05:04:55.030Z,12.41
2018-04-26T05:05:35.454Z,12.49
2018-04-26T05:06:15.882Z,12.41
2018-04-26T05:06:56.342Z,12.55
2018-04-26T05:07:36.789Z,12.56
2018-04-26T05:08:17.125Z,12.63
2018-04-26T05:08:57.661Z,12.56
2018-04-26T05:09:38.098Z,12.59
2018-04-26T05:10:18.525Z,12.58
2018-04-26T05:10:58.975Z,12.69
2018-04-26T05:11:39.422Z,12.59
2018-04-26T05:12:19.796Z,12.71
2018-04-26T05:13:00.197Z,12.58
2018-04-26T05:13:40.706Z,12.58
2018-04-26T05:14:21.113Z,12.52
2018-04-26T05:16:19.040Z,12.55
2018-04-26T05:16:59.410Z,12.52
2018-04-26T05:17:39.802Z,12.44
2018-04-26T05:18:20.251Z,12.61
2018-04-26T05:19:00.648Z,12.58
2018-04-26T05:24:14.501Z,14.11
2018-04-26T05:24:54.879Z,14.11
2018-04-26T05:25:35.344Z,13.94
2018-04-26T05:26:15.670Z,13.86
2018-04-26T05:26:56.036Z,13.98
2018-04-26T05:27:36.395Z,14.11
2018-04-26T05:28:16.857Z,14.16
2018-04-26T05:31:51.219Z,14.74
2018-04-26T05:32:47.133Z,14.95
2018-04-26T05:33:33.118Z,15.27
2018-04-26T05:35:56.303Z,15.37
2018-04-26T05:36:37.655Z,15.35
2018-04-26T05:37:18.145Z,15.3
2018-04-26T05:37:58.629Z,15.16
2018-04-26T05:39:37.290Z,15.01
2018-04-26T05:40:30.265Z,14.83
2018-04-26T05:41:27.230Z,14.59
2018-04-26T05:43:50.192Z,14.19
2018-04-26T05:44:29.686Z,13.99
2018-04-26T05:45:10.083Z,14.2
2018-04-26T05:52:17.206Z,14.72
2018-04-26T05:53:00.781Z,14.64
2018-04-26T05:53:41.189Z,14.49
2018-04-26T05:54:21.749Z,14.42
2018-04-26T05:55:02.216Z,14.3
2018-04-26T05:55:42.937Z,14.26
2018-04-26T05:56:23.196Z,14.19
2018-04-26T05:57:04.403Z,14.12
2018-04-26T05:57:45.754Z,13.96
2018-04-26T05:58:26.561Z,13.91
2018-04-26T05:59:06.721Z,13.71
2018-04-26T05:59:49.132Z,13.73
2018-04-26T06:00:32.486Z,13.66
2018-04-26T06:01:12.907Z,13.59
2018-04-26T06:01:53.791Z,13.59
2018-04-26T06:02:35.510Z,13.47
2018-04-26T06:03:16.145Z,13.55
2018-04-26T06:03:56.625Z,13.5
2018-04-26T06:04:37.080Z,13.46
2018-04-26T06:05:18.885Z,13.32
2018-04-26T06:05:59.925Z,13.32
2018-04-26T06:06:41.262Z,13.43
2018-04-26T06:07:22.619Z,13.44
2018-04-26T06:08:02.344Z,13.53
2018-04-26T06:08:43.867Z,13.57
2018-04-26T06:09:24.494Z,13.46
2018-04-26T06:10:04.991Z,13.43
2018-04-26T06:10:50.253Z,13.46
2018-04-26T06:11:31.236Z,13.41
2018-04-26T06:12:12.182Z,13.44
2018-04-26T06:14:11.782Z,13.22
2018-04-26T06:14:52.992Z,13.24
2018-04-26T06:15:34.086Z,13.16
2018-04-26T06:16:15.370Z,13.17
2018-04-26T06:16:57.213Z,13.22
2018-04-26T06:17:41.245Z,13.19
2018-04-26T06:18:29.296Z,13.22
2018-04-26T06:19:23.293Z,13.36
2018-04-26T06:22:33.044Z,13.41
2018-04-26T06:24:41.474Z,13.35
2018-04-26T06:25:22.315Z,13.35
2018-04-26T06:26:03.700Z,13.51
2018-04-26T06:26:44.858Z,13.48
2018-04-26T06:27:25.640Z,13.31
2018-04-26T06:28:08.875Z,13.44
2018-04-26T06:28:49.292Z,13.47
2018-04-26T06:29:30.274Z,13.48
2018-04-26T06:30:10.996Z,13.5
2018-04-26T06:30:52.852Z,13.51
2018-04-26T06:31:33.418Z,13.46
2018-04-26T06:32:14.229Z,13.62
2018-04-26T06:32:54.829Z,13.57
2018-04-26T06:33:35.757Z,13.69
2018-04-26T06:34:16.196Z,13.65
2018-04-26T06:34:57.035Z,13.65
2018-04-26T06:35:38.718Z,13.46
2018-04-26T06:36:20.435Z,13.55
2018-04-26T06:37:01.850Z,13.57
2018-04-26T06:37:43.534Z,13.61
2018-04-26T06:38:26.961Z,13.59
2018-04-26T06:39:07.283Z,13.47
2018-04-26T06:39:48.566Z,13.61
2018-04-26T06:40:29.191Z,13.66
2018-04-26T06:41:10.015Z,13.69
2018-04-26T06:41:50.422Z,13.71
2018-04-26T06:42:30.879Z,13.71
2018-04-26T06:43:11.393Z,13.75
2018-04-26T06:43:52.280Z,13.63
2018-04-26T06:44:32.914Z,13.54
2018-04-26T06:45:13.255Z,13.62
2018-04-26T06:45:53.639Z,13.63
2018-04-26T06:46:35.124Z,13.59
2018-04-26T06:47:15.797Z,13.66
2018-04-26T06:47:56.887Z,13.71
2018-04-26T06:48:38.920Z,13.76
2018-04-26T06:49:19.674Z,13.72
2018-04-26T06:50:02.710Z,13.81
2018-04-26T06:50:43.316Z,13.91
2018-04-26T06:51:23.899Z,13.98
2018-04-26T06:52:04.910Z,13.94
2018-04-26T06:52:46.366Z,14.02
2018-04-26T06:53:27.338Z,13.94
2018-04-26T06:54:08.865Z,13.9
2018-04-26T06:54:50.145Z,13.94
2018-04-26T06:55:30.726Z,14.06
2018-04-26T06:56:11.405Z,14.06
2018-04-26T06:56:52.100Z,14.12
2018-04-26T06:57:34.043Z,14.16
2018-04-26T06:58:22.379Z,14.3
2018-04-26T06:59:03.587Z,14.36
2018-04-26T06:59:45.149Z,14.24
2018-04-26T07:00:26.453Z,14.29
2018-04-26T07:01:07.035Z,14.2
2018-04-26T07:01:49.543Z,14.26
2018-04-26T07:02:32.101Z,14.35
2018-04-26T07:03:12.897Z,14.48
2018-04-26T07:03:54.210Z,14.64
2018-04-26T07:04:34.838Z,14.72
2018-04-26T07:05:16.011Z,14.66
2018-04-26T07:05:57.024Z,14.86
2018-04-26T07:06:37.335Z,14.97
2018-04-26T07:07:18.401Z,14.97
2018-04-26T07:07:58.817Z,15.05
2018-04-26T07:08:39.714Z,15.04
2018-04-26T07:09:22.107Z,15.01
2018-04-26T07:10:02.606Z,15.01
2018-04-26T07:10:43.802Z,14.94
2018-04-26T07:11:25.116Z,14.97
2018-04-26T07:12:06.637Z,14.86
2018-04-26T07:12:48.195Z,14.97
2018-04-26T07:13:32.954Z,14.72
2018-04-26T07:14:14.827Z,14.74
2018-04-26T07:14:58.036Z,14.71
2018-04-26T07:15:41.145Z,14.67
2018-04-26T07:16:20.865Z,14.71
2018-04-26T07:17:02.450Z,14.72
2018-04-26T07:17:44.577Z,14.61
2018-04-26T07:18:26.595Z,14.6
2018-04-26T07:19:09.844Z,14.39
2018-04-26T07:19:50.811Z,14.35
2018-04-26T07:20:31.654Z,14.35
2018-04-26T07:21:12.475Z,14.2
2018-04-26T07:21:53.087Z,14.2
2018-04-26T07:22:40.529Z,14.16
2018-04-26T07:23:24.160Z,14.17
2018-04-26T07:24:05.070Z,14.12
2018-04-26T07:24:45.674Z,14.08
2018-04-26T07:25:28.889Z,14.09
2018-04-26T07:26:09.756Z,14.2
2018-04-26T07:26:51.670Z,14.11
2018-04-26T07:27:32.874Z,13.98
2018-04-26T07:28:16.453Z,14.17
2018-04-26T07:28:57.812Z,14.17
2018-04-26T07:29:38.649Z,14.36
2018-04-26T07:30:19.656Z,14.31
2018-04-26T07:31:01.787Z,14.34
2018-04-26T07:31:42.728Z,14.41
2018-04-26T07:32:24.148Z,14.48
2018-04-26T07:33:06.510Z,14.61
2018-04-26T07:33:51.796Z,14.61
2018-04-26T07:34:33.203Z,14.63
2018-04-26T07:35:13.984Z,14.66
2018-04-26T07:35:54.554Z,14.42
2018-04-26T07:36:36.588Z,14.52
2018-04-26T07:37:18.228Z,14.38
2018-04-26T07:37:59.456Z,14.3
2018-04-26T07:38:41.596Z,14.29
2018-04-26T07:39:21.952Z,14.34
2018-04-26T07:40:03.063Z,14.24
2018-04-26T07:40:44.617Z,14.39
2018-04-26T07:41:25.793Z,14.27
2018-04-26T07:42:10.036Z,14.35
2018-04-26T07:42:51.485Z,14.44
2018-04-26T07:43:32.383Z,14.41
2018-04-26T07:44:13.804Z,14.56
2018-04-26T07:44:54.270Z,14.54
2018-04-26T07:45:34.750Z,14.53
2018-04-26T07:46:15.357Z,14.61
2018-04-26T07:46:57.359Z,14.66
2018-04-26T07:47:39.785Z,14.61
2018-04-26T07:48:19.278Z,14.79
2018-04-26T07:49:02.060Z,14.74
2018-04-26T07:49:45.461Z,14.71
2018-04-26T07:50:26.884Z,14.75
2018-04-26T07:51:07.929Z,14.72
2018-04-26T07:51:48.950Z,14.75
2018-04-26T07:52:29.509Z,14.75
2018-04-26T07:53:10.512Z,14.69
2018-04-26T07:53:51.958Z,14.63
2018-04-26T07:54:34.218Z,14.57
2018-04-26T07:55:14.626Z,14.67
2018-04-26T07:55:56.716Z,14.63
2018-04-26T07:56:37.808Z,14.69
2018-04-26T07:57:20.542Z,14.79
2018-04-26T07:58:01.794Z,14.67
2018-04-26T07:58:44.412Z,14.61
2018-04-26T07:59:24.346Z,14.75
2018-04-26T08:00:05.791Z,14.74
2018-04-26T08:00:46.780Z,14.83
2018-04-26T08:01:28.526Z,14.82
2018-04-26T08:02:09.620Z,14.98
2018-04-26T08:02:52.061Z,14.87
2018-04-26T08:03:32.577Z,14.8
2018-04-26T08:04:13.923Z,14.79
2018-04-26T08:04:53.938Z,14.78
2018-04-26T08:05:34.462Z,14.79
2018-04-26T08:06:17.331Z,14.74
2018-04-26T08:06:58.232Z,14.72
2018-04-26T08:07:38.715Z,14.75
2018-04-26T08:08:20.030Z,14.72
2018-04-26T08:09:03.840Z,14.64
2018-04-26T08:09:45.303Z,14.59
2018-04-26T08:10:30.592Z,14.61
2018-04-26T08:11:11.613Z,14.63
2018-04-26T08:11:52.109Z,14.63
2018-04-26T08:12:33.654Z,14.61
2018-04-26T08:13:15.016Z,14.66
2018-04-26T08:13:56.773Z,14.78
2018-04-26T08:15:00.344Z,14.67
2018-04-26T08:15:41.981Z,14.75
2018-04-26T08:27:01.509Z,15.22
2018-04-26T08:27:44.312Z,15.2
2018-04-26T08:29:47.979Z,15.4
2018-04-26T08:30:35.980Z,15.52
2018-04-26T08:31:31.823Z,15.7
2018-04-26T08:34:46.389Z,16.84
2018-04-26T08:37:07.553Z,17.4
2018-04-26T08:41:22.311Z,17.77
2018-04-26T08:42:05.198Z,17.92
2018-04-26T08:42:46.825Z,17.98
2018-04-26T08:44:34.140Z,17.42
2018-04-26T08:56:56.473Z,17.33
2018-04-26T08:58:00.035Z,17.3
2018-04-26T08:58:43.057Z,17.3
2018-04-26T09:03:37.509Z,16.52
2018-04-26T09:08:12.208Z,16.34
2018-04-26T09:11:43.338Z,16.1
2018-04-26T09:19:11.620Z,16.7
2018-04-26T09:19:52.476Z,16.65
2018-04-26T09:20:33.321Z,16.63
2018-04-26T09:21:13.600Z,16.51
2018-04-26T09:21:54.216Z,16.47
2018-04-26T09:22:34.619Z,16.29
2018-04-26T09:23:15.197Z,16.34
2018-04-26T09:23:55.813Z,16.42
2018-04-26T09:24:36.441Z,16.44
2018-04-26T09:25:17.063Z,16.54
2018-04-26T09:25:57.668Z,16.8
2018-04-26T09:26:38.344Z,16.92
2018-04-26T09:27:18.753Z,17.18
2018-04-26T09:27:59.561Z,17.3
2018-04-26T09:28:40.088Z,17.47
2018-04-26T09:29:20.954Z,17.66
2018-04-26T09:30:01.527Z,17.79
2018-04-26T09:30:41.986Z,18.09
2018-04-26T09:31:22.618Z,18.29
2018-04-26T09:32:03.103Z,18.46
2018-04-26T09:32:43.644Z,18.62
2018-04-26T09:33:24.920Z,18.87
2018-04-26T09:34:05.415Z,18.99
2018-04-26T09:37:21.914Z,19.3
2018-04-26T09:38:05.744Z,19.32
2018-04-26T09:38:46.447Z,19.34
2018-04-26T09:39:27.066Z,19.6
2018-04-26T09:40:07.977Z,19.53
2018-04-26T09:40:48.516Z,19.58
2018-04-26T09:41:29.149Z,19.58
2018-04-26T09:42:09.618Z,19.61
2018-04-26T09:42:50.471Z,19.75
2018-04-26T09:43:30.959Z,19.78
2018-04-26T09:44:11.486Z,19.78
2018-04-26T09:44:52.189Z,20.04
2018-04-26T09:45:33.173Z,19.98
2018-04-26T09:46:13.614Z,19.95
2018-04-26T09:46:55.479Z,19.97
2018-04-26T09:47:37.165Z,20.08
2018-04-26T09:48:17.557Z,20.16
2018-04-26T09:48:58.455Z,20.08
2018-04-26T09:49:38.840Z,20.16
2018-04-26T09:50:19.375Z,20.31
2018-04-26T09:50:59.994Z,20.46
2018-04-26T09:51:40.286Z,20.51
2018-04-26T09:52:20.954Z,20.46
2018-04-26T09:53:01.302Z,20.17
2018-04-26T09:53:41.925Z,19.98
2018-04-26T09:54:22.528Z,19.55
2018-04-26T09:55:02.935Z,19.32
2018-04-26T09:55:43.603Z,19.1
2018-04-26T09:56:24.077Z,19.05
2018-04-26T09:57:04.560Z,19.06
2018-04-26T09:57:45.137Z,18.94
2018-04-26T09:58:25.866Z,18.93
2018-04-26T09:59:06.546Z,18.75
2018-04-26T09:59:46.956Z,18.62
2018-04-26T10:00:27.422Z,18.44
2018-04-26T10:01:07.934Z,18.29
2018-04-26T10:01:48.341Z,18.28
2018-04-26T10:02:29.296Z,18.29
2018-04-26T10:03:09.723Z,18.46
2018-04-26T10:44:09.486Z,20.26
2018-04-26T10:44:52.234Z,20.16
2018-04-26T10:45:32.972Z,20.3
2018-04-26T10:46:13.778Z,20.1
2018-04-26T10:46:54.664Z,20.04
2018-04-26T10:47:35.392Z,19.97
2018-04-26T10:48:15.954Z,19.79
2018-04-26T10:48:56.966Z,19.75
2018-04-26T10:49:37.715Z,19.83
2018-04-26T10:50:18.152Z,19.78
2018-04-26T10:50:58.978Z,19.53
2018-04-26T10:51:39.840Z,19.25
2018-04-26T10:52:20.593Z,18.9
2018-04-26T10:53:01.003Z,18.93
2018-04-26T10:53:41.672Z,18.87
2018-04-26T10:54:22.402Z,18.83
2018-04-26T10:55:02.827Z,18.62
2018-04-26T10:55:43.471Z,18.41
2018-04-26T10:56:24.665Z,18.29
2018-04-26T10:57:04.863Z,18.21
2018-04-26T10:57:45.575Z,18.17
2018-04-26T10:58:26.472Z,17.92
2018-04-26T10:59:06.968Z,17.99
2018-04-26T10:59:47.424Z,18.1
2018-04-26T11:00:27.865Z,18.1
2018-04-26T11:01:08.350Z,18.07
2018-04-26T11:01:48.774Z,18.11
2018-04-26T11:02:29.306Z,18.17
2018-04-26T11:03:09.726Z,18.36
2018-04-26T11:03:50.437Z,18.47
2018-04-26T11:04:31.174Z,18.68
2018-04-26T11:05:11.996Z,18.91
2018-04-26T11:05:52.483Z,19.24
2018-04-26T11:06:32.956Z,19.46
2018-04-26T11:07:14.312Z,19.57
2018-04-26T11:07:55.973Z,19.8
2018-04-26T11:08:35.877Z,19.64
2018-04-26T11:09:16.529Z,19.76
2018-04-26T11:09:58.008Z,19.71
2018-04-26T11:10:37.393Z,19.9
2018-04-26T11:11:17.968Z,19.79
2018-04-26T11:11:58.505Z,19.86
2018-04-26T11:12:39.195Z,19.87
2018-04-26T11:13:20.091Z,20.13
2018-04-26T11:14:00.383Z,20.13
2018-04-26T11:14:41.461Z,20.22
2018-04-26T11:15:21.297Z,20.25
2018-04-26T11:16:01.796Z,20.26
2018-04-26T11:16:42.231Z,20.13
2018-04-26T11:17:23.007Z,20.07
2018-04-26T11:18:03.705Z,19.98
2018-04-26T11:18:44.197Z,19.76
2018-04-26T11:19:24.597Z,19.72
2018-04-26T11:20:05.523Z,19.75
2018-04-26T11:20:47.523Z,19.64
2018-04-26T11:21:27.556Z,19.6
2018-04-26T11:22:08.524Z,19.5
2018-04-26T11:22:49.997Z,19.58
2018-04-26T11:23:30.510Z,19.68
2018-04-26T11:24:12.004Z,19.7
2018-04-26T11:24:53.491Z,19.7
2018-04-26T11:25:33.524Z,19.61
2018-04-26T11:26:14.485Z,19.76
2018-04-26T11:26:56.525Z,19.76
2018-04-26T11:27:36.250Z,19.86
2018-04-26T11:28:17.126Z,19.9
2018-04-26T11:28:58.283Z,19.87
2018-04-26T11:29:39.048Z,19.92
2018-04-26T11:30:19.963Z,19.92
2018-04-26T11:31:01.561Z,19.9
2018-04-26T11:31:41.894Z,20.01
2018-04-26T11:32:23.518Z,20.13
2018-04-26T11:33:04.607Z,20.33
2018-04-26T11:33:44.884Z,20.44
2018-04-26T11:34:25.582Z,20.48
2018-04-26T11:35:06.142Z,20.44
2018-04-26T11:35:47.280Z,20.53
2018-04-26T11:36:28.514Z,20.46
2018-04-26T11:37:09.746Z,20.48
2018-04-26T11:37:51.004Z,20.61
2018-04-26T11:38:31.110Z,20.61
2018-04-26T11:39:12.147Z,20.6
2018-04-26T11:39:53.497Z,20.64
2018-04-26T11:40:33.992Z,20.64
2018-04-26T11:41:15.487Z,20.64
2018-04-26T11:41:56.604Z,20.68
2018-04-26T11:42:37.179Z,20.53
2018-04-26T11:43:18.021Z,20.46
2018-04-26T11:43:58.681Z,20.46
2018-04-26T11:44:40.258Z,20.61
2018-04-26T11:45:22.395Z,20.72